createdAt,value
2022-11-28T00:00:09.120Z,17.82
2022-11-28T00:02:40.381Z,17.67
2022-11-28T00:05:12.012Z,17.20
2022-11-28T00:07:41.474Z,18.00
2022-11-28T00:10:12.166Z,17.75
2022-11-28T00:12:41.742Z,17.80
2022-11-28T00:15:12.633Z,18.32
2022-11-28T00:17:42.042Z,19.07
2022-11-28T00:20:11.570Z,18.90
2022-11-28T00:22:40.798Z,18.10
2022-11-28T00:25:10.119Z,18.70
2022-11-28T00:27:39.485Z,19.35
2022-11-28T00:30:09.771Z,18.35
2022-11-28T00:32:39.073Z,17.92
2022-11-28T00:35:08.933Z,18.65
2022-11-28T00:37:38.429Z,18.02
2022-11-28T00:40:08.590Z,17.90
2022-11-28T00:42:37.840Z,18.02
2022-11-28T00:45:07.705Z,17.95
2022-11-28T00:47:36.957Z,18.40
2022-11-28T00:50:07.226Z,17.75
2022-11-28T00:52:36.584Z,17.98
2022-11-28T00:55:06.359Z,19.45
2022-11-28T00:57:35.594Z,18.45
2022-11-28T01:00:06.867Z,18.05
2022-11-28T01:02:36.489Z,17.23
2022-11-28T01:05:06.436Z,16.10
2022-11-28T01:07:35.695Z,15.70
2022-11-28T01:10:05.524Z,15.13
2022-11-28T01:12:34.898Z,15.60
2022-11-28T01:15:06.936Z,15.43
2022-11-28T01:17:36.465Z,16.45
2022-11-28T01:20:09.097Z,16.10
2022-11-28T01:25:07.560Z,14.80
2022-11-28T01:27:36.964Z,14.60
2022-11-28T01:30:08.013Z,15.83
2022-11-28T01:32:37.412Z,15.78
2022-11-28T01:35:07.140Z,14.65
2022-11-28T01:37:36.418Z,15.88
2022-11-28T01:40:07.229Z,15.85
2022-11-28T01:42:36.658Z,15.43
2022-11-28T01:45:14.899Z,15.05
2022-11-28T01:47:44.674Z,15.88
2022-11-28T01:50:14.658Z,15.10
2022-11-28T01:52:46.145Z,14.03
2022-11-28T01:55:17.618Z,14.85
2022-11-28T01:57:46.935Z,13.85
2022-11-28T02:00:19.248Z,13.65
2022-11-28T02:02:57.564Z,13.65
2022-11-28T02:05:27.100Z,13.60
2022-11-28T02:07:56.574Z,12.85
2022-11-28T02:10:28.953Z,13.45
2022-11-28T02:13:16.181Z,13.18
2022-11-28T02:15:57.437Z,12.58
2022-11-28T02:18:35.878Z,13.38
2022-11-28T02:21:10.992Z,14.00
2022-11-28T02:24:09.056Z,13.62
2022-11-28T02:26:46.993Z,13.32
2022-11-28T02:29:25.389Z,13.68
2022-11-28T02:32:16.020Z,13.55
2022-11-28T02:35:11.197Z,13.35
2022-11-28T02:37:58.448Z,13.68
2022-11-28T02:40:42.756Z,13.43
2022-11-28T02:43:33.307Z,13.62
2022-11-28T02:46:17.284Z,12.40
2022-11-28T02:48:52.798Z,12.40
2022-11-28T02:51:31.588Z,13.20
2022-11-28T02:54:03.582Z,13.98
2022-11-28T02:56:32.779Z,13.38
2022-11-28T02:59:02.336Z,13.32
2022-11-28T03:01:37.132Z,13.22
2022-11-28T03:04:35.662Z,13.78
2022-11-28T03:07:24.832Z,13.40
2022-11-28T03:10:06.076Z,14.05
2022-11-28T03:12:56.506Z,13.22
2022-11-28T03:15:29.110Z,13.25
2022-11-28T03:20:48.749Z,13.70
2022-11-28T03:23:24.075Z,14.20
2022-11-28T03:26:25.239Z,13.85
2022-11-28T03:29:07.310Z,15.18
2022-11-28T03:31:39.715Z,15.03
2022-11-28T03:34:11.453Z,14.73
2022-11-28T03:36:44.077Z,15.40
2022-11-28T03:41:48.670Z,15.83
2022-11-28T03:44:21.174Z,16.77
2022-11-28T03:46:51.106Z,17.12
2022-11-28T03:49:23.504Z,16.75
2022-11-28T03:51:58.841Z,17.02
2022-11-28T03:54:40.513Z,17.75
2022-11-28T03:57:12.562Z,17.07
2022-11-28T03:59:44.285Z,17.57
2022-11-28T04:02:21.938Z,17.33
2022-11-28T04:04:54.331Z,18.50
2022-11-28T04:07:29.685Z,18.17
2022-11-28T04:10:11.472Z,18.05
2022-11-28T04:13:02.037Z,18.82
2022-11-28T04:15:51.300Z,18.57
2022-11-28T04:18:26.417Z,18.90
2022-11-28T04:21:19.981Z,19.52
2022-11-28T04:23:49.891Z,19.75
2022-11-28T04:26:27.774Z,19.85
2022-11-28T04:28:59.050Z,20.00
2022-11-28T04:31:28.625Z,21.57
2022-11-28T04:34:01.260Z,20.88
2022-11-28T04:38:59.952Z,20.45
2022-11-28T04:41:35.507Z,21.37
2022-11-28T04:44:07.935Z,21.40
2022-11-28T04:46:40.892Z,22.75
2022-11-28T04:49:11.037Z,23.60
2022-11-28T04:51:49.116Z,22.52
2022-11-28T04:54:24.440Z,23.00
2022-11-28T04:56:57.245Z,23.55
2022-11-28T04:59:27.930Z,23.30
2022-11-28T05:01:58.440Z,23.40
2022-11-28T05:04:27.751Z,23.65
2022-11-28T05:07:08.540Z,24.57
2022-11-28T05:09:38.506Z,24.50
2022-11-28T05:12:08.237Z,24.18
2022-11-28T05:14:37.525Z,25.15
2022-11-28T05:17:07.145Z,24.50
2022-11-28T05:19:36.362Z,25.95
2022-11-28T05:22:05.589Z,26.95
2022-11-28T05:24:34.828Z,25.77
2022-11-28T05:27:04.630Z,26.27
2022-11-28T05:29:33.864Z,27.00
2022-11-28T05:32:03.363Z,27.75
2022-11-28T05:34:32.801Z,27.93
2022-11-28T05:37:02.041Z,26.82
2022-11-28T05:39:31.779Z,28.83
2022-11-28T05:42:01.007Z,29.05
2022-11-28T05:44:30.343Z,29.25
2022-11-28T05:46:59.578Z,30.30
2022-11-28T05:49:29.186Z,29.82
2022-11-28T05:51:58.571Z,30.97
2022-11-28T05:54:28.681Z,30.15
2022-11-28T05:56:58.344Z,30.52
2022-11-28T05:59:28.047Z,31.52
2022-11-28T06:01:57.359Z,31.62
2022-11-28T06:04:26.970Z,31.12
2022-11-28T06:06:56.302Z,32.55
2022-11-28T06:09:26.385Z,32.50
2022-11-28T06:11:55.798Z,33.45
2022-11-28T06:14:25.074Z,35.43
2022-11-28T06:16:57.102Z,37.08
2022-11-28T06:19:26.441Z,36.45
2022-11-28T06:21:56.411Z,36.17
2022-11-28T06:24:25.802Z,37.35
2022-11-28T06:26:55.315Z,37.05
2022-11-28T06:29:24.689Z,37.45
2022-11-28T06:31:54.172Z,38.20
2022-11-28T06:34:24.461Z,37.93
2022-11-28T06:36:53.682Z,37.63
2022-11-28T06:39:22.921Z,37.63
2022-11-28T06:41:52.156Z,37.95
2022-11-28T06:44:21.782Z,40.73
2022-11-28T06:46:51.141Z,38.78
2022-11-28T06:49:20.577Z,39.10
2022-11-28T06:51:49.844Z,39.45
2022-11-28T06:54:19.158Z,39.08
2022-11-28T06:56:48.883Z,39.95
2022-11-28T06:59:18.269Z,40.52
2022-11-28T07:01:47.808Z,40.35
2022-11-28T07:04:17.326Z,40.65
2022-11-28T07:06:46.924Z,40.63
2022-11-28T07:09:16.515Z,41.18
2022-11-28T07:11:46.048Z,41.23
2022-11-28T07:14:15.847Z,41.08
2022-11-28T07:16:45.617Z,41.42
2022-11-28T07:19:15.262Z,42.55
2022-11-28T07:21:44.565Z,41.73
2022-11-28T07:24:14.907Z,43.45
2022-11-28T07:26:44.341Z,43.40
2022-11-28T07:29:18.604Z,43.35
2022-11-28T07:31:48.607Z,43.65
2022-11-28T07:34:18.242Z,42.67
2022-11-28T07:36:47.858Z,43.00
2022-11-28T07:39:17.960Z,43.45
2022-11-28T07:41:47.404Z,41.55
2022-11-28T07:44:20.142Z,43.40
2022-11-28T07:49:18.356Z,42.95
2022-11-28T07:51:47.563Z,46.02
2022-11-28T07:54:16.979Z,45.55
2022-11-28T07:59:17.407Z,44.75
2022-11-28T08:01:46.678Z,43.83
2022-11-28T08:04:16.140Z,44.93
2022-11-28T08:06:45.589Z,44.83
2022-11-28T08:09:15.226Z,45.80
2022-11-28T08:11:44.451Z,45.05
2022-11-28T08:14:14.551Z,45.30
2022-11-28T08:16:45.980Z,47.90
2022-11-28T08:19:15.540Z,46.75
2022-11-28T08:21:44.883Z,47.27
2022-11-28T08:24:14.911Z,48.00
2022-11-28T08:26:44.251Z,48.15
2022-11-28T08:29:13.747Z,48.15
2022-11-28T08:31:43.543Z,47.93
2022-11-28T08:34:12.953Z,49.65
2022-11-28T08:36:43.579Z,48.95
2022-11-28T08:39:28.534Z,49.53
2022-11-28T08:41:44.193Z,49.48
2022-11-28T08:44:13.897Z,47.55
2022-11-28T08:46:43.416Z,47.10
2022-11-28T08:49:12.957Z,47.50
2022-11-28T08:51:42.250Z,46.88
2022-11-28T08:54:11.651Z,45.08
2022-11-28T08:56:40.868Z,45.67
2022-11-28T08:59:11.022Z,45.15
2022-11-28T09:01:40.364Z,44.88
2022-11-28T09:04:09.981Z,44.27
2022-11-28T09:06:42.254Z,44.27
2022-11-28T09:09:11.796Z,42.70
2022-11-28T09:11:41.321Z,43.58
2022-11-28T09:14:11.099Z,44.63
2022-11-28T09:16:41.658Z,42.15
2022-11-28T09:19:11.236Z,42.58
2022-11-28T09:21:41.656Z,41.33
2022-11-28T09:24:12.891Z,43.23
2022-11-28T09:26:42.794Z,40.52
2022-11-28T09:29:12.038Z,40.52
2022-11-28T09:31:46.966Z,40.20
2022-11-28T09:34:12.723Z,40.25
2022-11-28T09:36:42.345Z,39.78
2022-11-28T09:39:11.723Z,39.58
2022-11-28T09:41:47.081Z,38.58
2022-11-28T09:44:19.661Z,39.80
2022-11-28T09:49:39.998Z,40.88
2022-11-28T09:52:07.427Z,40.75
2022-11-28T09:54:52.080Z,42.35
2022-11-28T09:57:24.457Z,43.87
2022-11-28T09:59:53.858Z,45.17
2022-11-28T10:02:44.966Z,45.45
2022-11-28T10:05:38.991Z,45.38
2022-11-28T10:08:27.857Z,46.42
2022-11-28T10:11:03.935Z,46.77
2022-11-28T10:14:06.185Z,46.45
2022-11-28T10:16:23.029Z,49.35
2022-11-28T10:18:58.581Z,50.45
2022-11-28T10:21:47.369Z,50.43
2022-11-28T10:24:22.195Z,51.85
2022-11-28T10:27:00.309Z,51.15
2022-11-28T10:29:49.460Z,51.40
2022-11-28T10:32:21.888Z,52.20
2022-11-28T10:35:02.595Z,51.65
2022-11-28T10:37:33.488Z,52.10
2022-11-28T10:40:11.926Z,50.78
2022-11-28T10:42:44.352Z,51.05
2022-11-28T10:45:34.955Z,49.83
2022-11-28T10:48:37.312Z,51.92
2022-11-28T10:50:53.767Z,49.15
2022-11-28T10:53:26.516Z,50.38
2022-11-28T10:56:09.897Z,51.53
2022-11-28T10:58:47.856Z,51.45
2022-11-28T11:01:17.227Z,49.03
2022-11-28T11:03:46.774Z,49.70
2022-11-28T11:06:15.984Z,50.73
2022-11-28T11:08:46.982Z,51.58
2022-11-28T11:11:22.061Z,49.85
2022-11-28T11:14:12.408Z,50.10
2022-11-28T11:16:50.662Z,50.30
2022-11-28T11:19:25.103Z,48.55
2022-11-28T11:22:00.577Z,49.65
2022-11-28T11:24:29.928Z,48.45
2022-11-28T11:27:18.319Z,49.10
2022-11-28T11:29:51.379Z,49.42
2022-11-28T11:32:29.912Z,48.92
2022-11-28T11:35:00.533Z,48.98
2022-11-28T11:37:35.229Z,50.55
2022-11-28T11:40:07.997Z,49.85
2022-11-28T11:42:37.398Z,50.38
2022-11-28T11:45:36.048Z,48.52
2022-11-28T11:48:05.569Z,49.85
2022-11-28T11:50:36.446Z,48.55
2022-11-28T11:53:14.092Z,49.53
2022-11-28T11:55:49.320Z,49.03
2022-11-28T11:58:21.680Z,48.95
2022-11-28T12:00:53.010Z,49.48
2022-11-28T12:03:28.341Z,48.87
2022-11-28T12:06:13.714Z,48.52
2022-11-28T12:11:15.605Z,46.23
2022-11-28T12:13:45.259Z,47.73
2022-11-28T12:16:36.441Z,47.08
2022-11-28T12:19:14.576Z,48.08
2022-11-28T12:21:53.097Z,49.08
2022-11-28T12:24:26.038Z,48.90
2022-11-28T12:27:01.460Z,46.23
2022-11-28T12:29:52.159Z,48.60
2022-11-28T12:32:27.902Z,46.90
2022-11-28T12:35:24.740Z,48.52
2022-11-28T12:38:10.636Z,46.13
2022-11-28T12:40:48.815Z,47.55
2022-11-28T12:43:33.454Z,46.80
2022-11-28T12:46:18.457Z,45.45
2022-11-28T12:49:11.130Z,46.10
2022-11-28T12:51:46.274Z,46.18
2022-11-28T12:54:30.521Z,44.38
2022-11-28T12:57:05.756Z,45.08
2022-11-28T12:59:38.303Z,43.80
2022-11-28T13:02:35.126Z,42.88
2022-11-28T13:05:24.199Z,42.05
2022-11-28T13:08:18.088Z,42.40
2022-11-28T13:11:07.018Z,43.40
2022-11-28T13:13:42.117Z,41.80
2022-11-28T13:16:34.026Z,41.92
2022-11-28T13:19:24.827Z,40.70
2022-11-28T13:21:57.378Z,38.73
2022-11-28T13:24:38.782Z,37.20
2022-11-28T13:27:36.571Z,34.90
2022-11-28T13:30:20.379Z,35.80
2022-11-28T13:33:09.297Z,34.75
2022-11-28T13:35:40.428Z,33.92
2022-11-28T13:38:50.497Z,33.10
2022-11-28T13:41:01.458Z,33.02
2022-11-28T13:43:54.767Z,31.85
2022-11-28T13:46:24.490Z,30.20
2022-11-28T13:49:19.782Z,29.48
2022-11-28T13:51:33.510Z,29.20
2022-11-28T13:54:24.283Z,29.10
2022-11-28T13:57:19.091Z,28.80
2022-11-28T13:59:51.635Z,28.50
2022-11-28T14:02:36.851Z,29.40
2022-11-28T14:05:09.187Z,28.75
2022-11-28T14:07:38.997Z,28.57
2022-11-28T14:10:17.348Z,28.90
2022-11-28T14:12:58.069Z,29.20
2022-11-28T14:15:56.550Z,26.90
2022-11-28T14:18:55.833Z,26.33
2022-11-28T14:21:06.039Z,26.35
2022-11-28T14:26:38.002Z,25.80
2022-11-28T14:29:22.448Z,26.23
2022-11-28T14:32:21.689Z,25.35
2022-11-28T14:34:44.947Z,24.45
2022-11-28T14:37:30.147Z,23.80
2022-11-28T14:40:00.224Z,23.73
2022-11-28T14:42:59.768Z,23.80
2022-11-28T14:45:44.525Z,24.25
2022-11-28T14:48:26.537Z,23.73
2022-11-28T14:51:01.387Z,23.98
2022-11-28T14:53:38.534Z,24.43
2022-11-28T14:56:25.876Z,25.10
2022-11-28T14:58:57.534Z,24.77
2022-11-28T15:01:35.916Z,26.25
2022-11-28T15:04:14.392Z,27.85
2022-11-28T15:06:44.710Z,33.85
2022-11-28T15:09:29.740Z,31.40
2022-11-28T15:12:08.507Z,29.57
2022-11-28T15:14:39.839Z,29.57
2022-11-28T15:17:12.744Z,29.65
2022-11-28T15:19:47.423Z,30.05
2022-11-28T15:22:36.228Z,31.62
2022-11-28T15:25:07.353Z,33.28
2022-11-28T15:27:36.692Z,33.90
2022-11-28T15:30:08.456Z,41.73
2022-11-28T15:32:37.931Z,38.48
2022-11-28T15:35:12.484Z,37.30
2022-11-28T15:37:38.585Z,38.13
2022-11-28T15:40:08.951Z,41.85
2022-11-28T15:42:38.936Z,35.50
2022-11-28T15:45:11.447Z,36.28
2022-11-28T15:47:41.042Z,34.43
2022-11-28T15:50:17.291Z,37.95
2022-11-28T15:53:16.618Z,38.17
2022-11-28T15:55:46.209Z,35.70
2022-11-28T15:58:29.130Z,35.50
2022-11-28T16:01:07.171Z,35.65
2022-11-28T16:03:39.970Z,37.42
2022-11-28T16:06:11.133Z,37.15
2022-11-28T16:08:49.030Z,42.78
2022-11-28T16:11:20.339Z,44.05
2022-11-28T16:13:49.930Z,44.88
2022-11-28T16:16:25.221Z,42.58
2022-11-28T16:19:06.169Z,42.50
2022-11-28T16:21:40.896Z,40.20
2022-11-28T16:24:36.935Z,41.58
2022-11-28T16:27:04.437Z,43.13
2022-11-28T16:29:36.212Z,47.25
2022-11-28T16:32:10.514Z,52.37
2022-11-28T16:34:48.177Z,50.92
2022-11-28T16:37:23.256Z,57.25
2022-11-28T16:40:07.039Z,54.20
2022-11-28T16:42:36.570Z,49.30
2022-11-28T16:45:17.496Z,49.67
2022-11-28T16:47:47.303Z,47.65
2022-11-28T16:50:25.324Z,48.60
2022-11-28T16:52:57.851Z,46.98
2022-11-28T16:55:37.056Z,46.00
2022-11-28T16:58:18.865Z,45.70
2022-11-28T17:01:02.347Z,48.13
2022-11-28T17:03:43.975Z,46.10
2022-11-28T17:06:16.633Z,49.63
2022-11-28T17:11:15.205Z,44.48
2022-11-28T17:13:44.711Z,50.50
2022-11-28T17:16:19.647Z,48.55
2022-11-28T17:18:49.637Z,47.83
2022-11-28T17:21:21.735Z,48.80
2022-11-28T17:23:51.069Z,49.10
2022-11-28T17:26:20.282Z,47.55
2022-11-28T17:28:49.635Z,48.92
2022-11-28T17:31:19.326Z,47.08
2022-11-28T17:33:48.635Z,46.55
2022-11-28T17:36:17.901Z,47.50
2022-11-28T17:38:47.384Z,46.80
2022-11-28T17:41:16.594Z,47.10
2022-11-28T17:43:46.002Z,46.92
2022-11-28T17:46:15.448Z,45.95
2022-11-28T17:48:44.698Z,46.85
2022-11-28T17:51:14.394Z,46.65
2022-11-28T17:53:44.183Z,48.00
2022-11-28T17:56:14.571Z,45.20
2022-11-28T17:58:45.067Z,44.15
2022-11-28T18:01:17.679Z,44.13
2022-11-28T18:06:17.554Z,42.13
2022-11-28T18:08:49.149Z,44.35
2022-11-28T18:11:20.127Z,45.08
2022-11-28T18:13:50.082Z,42.30
2022-11-28T18:16:22.948Z,43.75
2022-11-28T18:18:53.619Z,43.83
2022-11-28T18:21:22.988Z,42.05
2022-11-28T18:23:52.476Z,45.15
2022-11-28T18:26:23.975Z,45.48
2022-11-28T18:28:54.106Z,59.03
2022-11-28T18:31:27.401Z,72.87
2022-11-28T18:36:28.390Z,64.67
2022-11-28T18:39:00.019Z,57.30
2022-11-28T18:41:30.147Z,49.30
2022-11-28T18:44:01.076Z,50.35
2022-11-28T18:46:31.323Z,50.05
2022-11-28T18:49:00.882Z,49.88
2022-11-28T18:51:33.219Z,48.95
2022-11-28T18:54:05.121Z,47.95
2022-11-28T18:56:35.919Z,47.85
2022-11-28T18:59:07.269Z,49.05
2022-11-28T19:01:38.398Z,49.03
2022-11-28T19:04:11.103Z,53.48
2022-11-28T19:09:13.026Z,46.00
2022-11-28T19:11:43.551Z,48.75
2022-11-28T19:14:17.788Z,47.48
2022-11-28T19:16:49.609Z,49.08
2022-11-28T19:19:19.533Z,49.33
2022-11-28T19:21:50.513Z,46.08
2022-11-28T19:24:20.048Z,48.50
2022-11-28T19:26:51.123Z,48.42
2022-11-28T19:29:20.641Z,48.13
2022-11-28T19:31:50.317Z,72.30
2022-11-28T19:34:20.740Z,60.95
2022-11-28T19:36:51.857Z,52.10
2022-11-28T19:39:24.979Z,48.58
2022-11-28T19:41:57.050Z,49.83
2022-11-28T19:44:29.246Z,49.70
2022-11-28T19:46:58.816Z,52.53
2022-11-28T19:49:29.425Z,53.17
2022-11-28T19:51:58.935Z,55.92
2022-11-28T19:54:28.932Z,54.55
2022-11-28T19:56:58.238Z,57.88
2022-11-28T19:59:28.897Z,61.13
2022-11-28T20:01:59.399Z,70.77
2022-11-28T20:04:29.012Z,77.62
2022-11-28T20:06:58.615Z,54.03
2022-11-28T20:09:28.197Z,51.48
2022-11-28T20:11:57.646Z,50.90
2022-11-28T20:14:28.838Z,51.18
2022-11-28T20:17:09.838Z,50.85
2022-11-28T20:19:39.158Z,62.03
2022-11-28T20:22:08.729Z,58.23
2022-11-28T20:24:37.938Z,52.98
2022-11-28T20:27:07.500Z,53.98
2022-11-28T20:29:36.749Z,52.93
2022-11-28T20:32:06.169Z,55.23
2022-11-28T20:34:35.666Z,53.75
2022-11-28T20:37:05.586Z,50.58
2022-11-28T20:39:34.936Z,54.15
2022-11-28T20:42:04.781Z,54.67
2022-11-28T20:44:34.161Z,58.28
2022-11-28T20:47:04.209Z,58.90
2022-11-28T20:49:33.657Z,62.27
2022-11-28T20:52:02.922Z,57.88
2022-11-28T20:54:32.201Z,52.65
2022-11-28T20:59:32.740Z,54.42
2022-11-28T21:02:02.198Z,54.63
2022-11-28T21:04:31.659Z,59.33
2022-11-28T21:07:01.129Z,60.12
2022-11-28T21:09:30.513Z,52.48
2022-11-28T21:11:59.876Z,51.55
2022-11-28T21:14:30.186Z,52.98
2022-11-28T21:16:59.842Z,49.88
2022-11-28T21:19:29.191Z,50.73
2022-11-28T21:21:58.578Z,50.88
2022-11-28T21:24:28.053Z,50.50
2022-11-28T21:26:57.379Z,49.67
2022-11-28T21:29:26.626Z,51.40
2022-11-28T21:31:55.989Z,50.17
2022-11-28T21:34:25.465Z,52.20
2022-11-28T21:36:55.164Z,51.13
2022-11-28T21:39:24.497Z,48.92
2022-11-28T21:41:53.786Z,51.00
2022-11-28T21:44:23.032Z,49.63
2022-11-28T21:46:52.394Z,51.37
2022-11-28T21:49:21.658Z,50.90
2022-11-28T21:51:53.200Z,55.25
2022-11-28T21:54:23.540Z,58.70
2022-11-28T21:56:53.271Z,53.42
2022-11-28T21:59:23.255Z,56.75
2022-11-28T22:01:53.354Z,55.80
2022-11-28T22:04:23.309Z,54.95
2022-11-28T22:06:52.623Z,52.78
2022-11-28T22:09:21.964Z,52.27
2022-11-28T22:11:51.178Z,53.20
2022-11-28T22:14:23.996Z,54.23
2022-11-28T22:16:53.285Z,59.53
2022-11-28T22:19:22.981Z,59.58
2022-11-28T22:21:54.624Z,59.48
2022-11-28T22:24:24.500Z,56.65
2022-11-28T22:26:55.223Z,55.33
2022-11-28T22:29:25.849Z,55.43
2022-11-28T22:31:55.718Z,54.55
2022-11-28T22:34:25.021Z,54.30
2022-11-28T22:36:54.499Z,53.38
2022-11-28T22:39:23.787Z,53.25
2022-11-28T22:41:53.356Z,52.75
2022-11-28T22:44:22.736Z,49.15
2022-11-28T22:46:52.197Z,55.95
2022-11-28T22:49:21.440Z,54.75
2022-11-28T22:51:51.012Z,55.60
2022-11-28T22:54:20.342Z,54.75
2022-11-28T22:56:51.156Z,53.90
2022-11-28T22:59:20.903Z,55.92
2022-11-28T23:01:51.030Z,55.70
2022-11-28T23:04:20.513Z,55.12
2022-11-28T23:06:50.241Z,55.88
2022-11-28T23:09:21.073Z,56.90
2022-11-28T23:11:51.367Z,55.65
2022-11-28T23:14:20.990Z,55.28
2022-11-28T23:16:50.480Z,55.63
2022-11-28T23:19:20.325Z,55.38
2022-11-28T23:21:50.970Z,54.88
2022-11-28T23:24:23.340Z,53.73
2022-11-28T23:26:54.313Z,54.90
2022-11-28T23:29:25.026Z,54.58
2022-11-28T23:31:54.461Z,55.43
2022-11-28T23:34:25.453Z,55.83
2022-11-28T23:36:54.855Z,53.00
2022-11-28T23:39:24.364Z,53.52
2022-11-28T23:41:55.565Z,55.60
2022-11-28T23:44:24.791Z,54.85
2022-11-28T23:46:54.084Z,54.73
2022-11-28T23:49:23.320Z,54.73
2022-11-28T23:51:52.544Z,55.80
2022-11-28T23:54:21.839Z,55.43
2022-11-28T23:56:51.317Z,54.70
2022-11-28T23:59:20.512Z,54.42
